sensor_id;sensor_type;location;lat;lon;timestamp;P1;durP1;ratioP1;P2;durP2;ratioP2
17993;SDS011;9122;48.406;9.984;2024-01-15T00:02:21;14.30;;;10.77;;
17993;SDS011;9122;48.406;9.984;2024-01-15T00:05:05;17.63;;;11.33;;
17993;SDS011;9122;48.406;9.984;2024-01-15T00:07:50;11.63;;;9.63;;
17993;SDS011;9122;48.406;9.984;2024-01-15T00:10:34;15.30;;;10.50;;
17993;SDS011;9122;48.406;9.984;2024-01-15T00:13:18;17.27;;;10.60;;
17993;SDS011;9122;48.406;9.984;2024-01-15T00:16:02;15.50;;;10.37;;
17993;SDS011;9122;48.406;9.984;2024-01-15T00:18:47;18.70;;;11.63;;
17993;SDS011;9122;48.406;9.984;2024-01-15T00:21:32;18.17;;;10.50;;
17993;SDS011;9122;48.406;9.984;2024-01-15T00:24:15;15.33;;;11.00;;
17993;SDS011;9122;48.406;9.984;2024-01-15T00:27:00;11.97;;;9.77;;
17993;SDS011;9122;48.406;9.984;2024-01-15T00:29:44;15.53;;;9.77;;
17993;SDS011;9122;48.406;9.984;2024-01-15T00:32:29;13.73;;;9.63;;
17993;SDS011;9122;48.406;9.984;2024-01-15T00:35:14;14.30;;;10.23;;
17993;SDS011;9122;48.406;9.984;2024-01-15T00:37:58;15.97;;;10.20;;
17993;SDS011;9122;48.406;9.984;2024-01-15T00:40:42;13.63;;;9.97;;
17993;SDS011;9122;48.406;9.984;2024-01-15T00:43:26;16.27;;;9.77;;
17993;SDS011;9122;48.406;9.984;2024-01-15T00:46:11;13.07;;;9.37;;
17993;SDS011;9122;48.406;9.984;2024-01-15T00:48:55;11.73;;;9.17;;
17993;SDS011;9122;48.406;9.984;2024-01-15T00:51:39;12.97;;;9.00;;
17993;SDS011;9122;48.406;9.984;2024-01-15T00:54:24;13.57;;;9.00;;
17993;SDS011;9122;48.406;9.984;2024-01-15T00:57:08;11.73;;;8.13;;
17993;SDS011;9122;48.406;9.984;2024-01-15T00:59:52;11.77;;;7.70;;
17993;SDS011;9122;48.406;9.984;2024-01-15T01:02:36;13.30;;;8.50;;
17993;SDS011;9122;48.406;9.984;2024-01-15T01:05:20;10.87;;;8.50;;
17993;SDS011;9122;48.406;9.984;2024-01-15T01:08:05;10.23;;;7.50;;
17993;SDS011;9122;48.406;9.984;2024-01-15T01:10:49;8.47;;;7.27;;
17993;SDS011;9122;48.406;9.984;2024-01-15T01:13:33;8.00;;;6.30;;
17993;SDS011;9122;48.406;9.984;2024-01-15T01:16:17;7.97;;;5.90;;
17993;SDS011;9122;48.406;9.984;2024-01-15T01:19:01;7.73;;;5.93;;
17993;SDS011;9122;48.406;9.984;2024-01-15T01:21:45;6.10;;;5.23;;
17993;SDS011;9122;48.406;9.984;2024-01-15T01:24:30;9.13;;;5.13;;
17993;SDS011;9122;48.406;9.984;2024-01-15T01:27:14;6.27;;;5.27;;
17993;SDS011;9122;48.406;9.984;2024-01-15T01:29:58;8.33;;;5.63;;
17993;SDS011;9122;48.406;9.984;2024-01-15T01:32:43;9.17;;;5.80;;
17993;SDS011;9122;48.406;9.984;2024-01-15T01:35:27;8.60;;;6.00;;
17993;SDS011;9122;48.406;9.984;2024-01-15T01:38:11;7.53;;;5.73;;
17993;SDS011;9122;48.406;9.984;2024-01-15T01:40:56;7.17;;;5.80;;
17993;SDS011;9122;48.406;9.984;2024-01-15T01:43:40;7.07;;;6.03;;
17993;SDS011;9122;48.406;9.984;2024-01-15T01:46:25;7.50;;;5.80;;
17993;SDS011;9122;48.406;9.984;2024-01-15T01:49:11;8.60;;;6.50;;
17993;SDS011;9122;48.406;9.984;2024-01-15T01:51:56;11.23;;;6.40;;
17993;SDS011;9122;48.406;9.984;2024-01-15T01:54:41;9.37;;;6.80;;
17993;SDS011;9122;48.406;9.984;2024-01-15T01:57:26;8.57;;;6.87;;
17993;SDS011;9122;48.406;9.984;2024-01-15T02:00:11;7.83;;;6.13;;
17993;SDS011;9122;48.406;9.984;2024-01-15T02:02:56;11.37;;;7.10;;
17993;SDS011;9122;48.406;9.984;2024-01-15T02:05:41;8.20;;;6.27;;
17993;SDS011;9122;48.406;9.984;2024-01-15T02:08:28;9.23;;;6.90;;
17993;SDS011;9122;48.406;9.984;2024-01-15T02:11:16;10.93;;;6.87;;
17993;SDS011;9122;48.406;9.984;2024-01-15T02:14:01;14.07;;;8.73;;
17993;SDS011;9122;48.406;9.984;2024-01-15T02:16:46;12.17;;;7.83;;
17993;SDS011;9122;48.406;9.984;2024-01-15T02:19:30;15.80;;;10.07;;
17993;SDS011;9122;48.406;9.984;2024-01-15T02:22:15;16.80;;;9.93;;
17993;SDS011;9122;48.406;9.984;2024-01-15T02:24:59;13.90;;;9.00;;
17993;SDS011;9122;48.406;9.984;2024-01-15T02:27:43;14.83;;;8.73;;
17993;SDS011;9122;48.406;9.984;2024-01-15T02:30:29;12.33;;;9.00;;
17993;SDS011;9122;48.406;9.984;2024-01-15T02:33:14;12.43;;;8.47;;
17993;SDS011;9122;48.406;9.984;2024-01-15T02:35:59;10.10;;;7.30;;
17993;SDS011;9122;48.406;9.984;2024-01-15T02:38:43;12.40;;;7.90;;
17993;SDS011;9122;48.406;9.984;2024-01-15T02:41:28;10.50;;;7.77;;
17993;SDS011;9122;48.406;9.984;2024-01-15T02:44:12;12.20;;;7.87;;
17993;SDS011;9122;48.406;9.984;2024-01-15T02:46:57;12.90;;;7.73;;
17993;SDS011;9122;48.406;9.984;2024-01-15T02:49:41;10.10;;;7.73;;
17993;SDS011;9122;48.406;9.984;2024-01-15T02:52:25;12.37;;;8.10;;
17993;SDS011;9122;48.406;9.984;2024-01-15T02:55:10;10.77;;;7.90;;
17993;SDS011;9122;48.406;9.984;2024-01-15T02:57:54;10.97;;;8.17;;
17993;SDS011;9122;48.406;9.984;2024-01-15T03:00:39;12.13;;;7.53;;
17993;SDS011;9122;48.406;9.984;2024-01-15T03:03:23;10.43;;;8.10;;
17993;SDS011;9122;48.406;9.984;2024-01-15T03:06:07;8.70;;;7.00;;
17993;SDS011;9122;48.406;9.984;2024-01-15T03:08:51;11.30;;;7.40;;
17993;SDS011;9122;48.406;9.984;2024-01-15T03:11:36;10.17;;;7.07;;
17993;SDS011;9122;48.406;9.984;2024-01-15T03:14:22;10.27;;;8.03;;
17993;SDS011;9122;48.406;9.984;2024-01-15T03:17:08;10.10;;;7.60;;
17993;SDS011;9122;48.406;9.984;2024-01-15T03:19:54;9.47;;;7.67;;
17993;SDS011;9122;48.406;9.984;2024-01-15T03:22:38;10.60;;;7.53;;
17993;SDS011;9122;48.406;9.984;2024-01-15T03:25:23;9.50;;;7.13;;
17993;SDS011;9122;48.406;9.984;2024-01-15T03:28:08;12.33;;;8.97;;
17993;SDS011;9122;48.406;9.984;2024-01-15T03:30:53;10.03;;;7.83;;
17993;SDS011;9122;48.406;9.984;2024-01-15T03:33:37;12.47;;;9.40;;
17993;SDS011;9122;48.406;9.984;2024-01-15T03:36:21;9.50;;;7.57;;
17993;SDS011;9122;48.406;9.984;2024-01-15T03:39:06;12.47;;;8.87;;
17993;SDS011;9122;48.406;9.984;2024-01-15T03:41:51;12.30;;;8.67;;
17993;SDS011;9122;48.406;9.984;2024-01-15T03:44:36;11.17;;;8.47;;
17993;SDS011;9122;48.406;9.984;2024-01-15T03:47:20;11.07;;;7.67;;
17993;SDS011;9122;48.406;9.984;2024-01-15T03:50:04;13.23;;;9.27;;
17993;SDS011;9122;48.406;9.984;2024-01-15T03:52:49;11.37;;;8.30;;
17993;SDS011;9122;48.406;9.984;2024-01-15T03:55:34;13.80;;;8.13;;
17993;SDS011;9122;48.406;9.984;2024-01-15T03:58:19;11.93;;;8.83;;
17993;SDS011;9122;48.406;9.984;2024-01-15T04:01:03;12.60;;;8.37;;
17993;SDS011;9122;48.406;9.984;2024-01-15T04:03:52;11.07;;;8.07;;
17993;SDS011;9122;48.406;9.984;2024-01-15T04:06:37;10.53;;;7.73;;
17993;SDS011;9122;48.406;9.984;2024-01-15T04:09:27;11.00;;;7.50;;
17993;SDS011;9122;48.406;9.984;2024-01-15T04:12:11;12.10;;;8.30;;
17993;SDS011;9122;48.406;9.984;2024-01-15T04:14:56;13.23;;;7.97;;
17993;SDS011;9122;48.406;9.984;2024-01-15T04:17:40;12.27;;;8.00;;
17993;SDS011;9122;48.406;9.984;2024-01-15T04:20:25;13.63;;;8.70;;
17993;SDS011;9122;48.406;9.984;2024-01-15T04:23:09;12.63;;;8.93;;
17993;SDS011;9122;48.406;9.984;2024-01-15T04:25:54;13.17;;;8.73;;
17993;SDS011;9122;48.406;9.984;2024-01-15T04:28:39;14.23;;;8.77;;
17993;SDS011;9122;48.406;9.984;2024-01-15T04:31:24;12.13;;;8.07;;
17993;SDS011;9122;48.406;9.984;2024-01-15T04:34:10;13.13;;;9.20;;
17993;SDS011;9122;48.406;9.984;2024-01-15T04:36:54;12.33;;;8.90;;
17993;SDS011;9122;48.406;9.984;2024-01-15T04:39:39;14.17;;;9.33;;
17993;SDS011;9122;48.406;9.984;2024-01-15T04:42:23;11.67;;;8.97;;
17993;SDS011;9122;48.406;9.984;2024-01-15T04:45:07;10.40;;;7.37;;
17993;SDS011;9122;48.406;9.984;2024-01-15T04:47:52;11.90;;;8.10;;
17993;SDS011;9122;48.406;9.984;2024-01-15T04:50:36;9.90;;;7.23;;
17993;SDS011;9122;48.406;9.984;2024-01-15T04:53:20;10.47;;;7.50;;
17993;SDS011;9122;48.406;9.984;2024-01-15T04:56:04;12.07;;;7.67;;
17993;SDS011;9122;48.406;9.984;2024-01-15T04:58:48;9.73;;;7.30;;
17993;SDS011;9122;48.406;9.984;2024-01-15T05:01:32;10.00;;;7.77;;
17993;SDS011;9122;48.406;9.984;2024-01-15T05:04:17;11.87;;;7.87;;
17993;SDS011;9122;48.406;9.984;2024-01-15T05:07:02;11.57;;;7.87;;
17993;SDS011;9122;48.406;9.984;2024-01-15T05:09:46;13.13;;;8.13;;
17993;SDS011;9122;48.406;9.984;2024-01-15T05:12:31;9.30;;;7.50;;
17993;SDS011;9122;48.406;9.984;2024-01-15T05:15:15;11.33;;;7.73;;
17993;SDS011;9122;48.406;9.984;2024-01-15T05:18:00;8.77;;;7.07;;
17993;SDS011;9122;48.406;9.984;2024-01-15T05:20:45;9.33;;;6.87;;
17993;SDS011;9122;48.406;9.984;2024-01-15T05:23:30;8.90;;;5.13;;
17993;SDS011;9122;48.406;9.984;2024-01-15T05:26:17;6.93;;;5.37;;
17993;SDS011;9122;48.406;9.984;2024-01-15T05:29:01;6.07;;;4.80;;
17993;SDS011;9122;48.406;9.984;2024-01-15T05:31:53;5.83;;;5.00;;
17993;SDS011;9122;48.406;9.984;2024-01-15T05:34:37;5.77;;;4.87;;
17993;SDS011;9122;48.406;9.984;2024-01-15T05:37:22;7.60;;;5.83;;
17993;SDS011;9122;48.406;9.984;2024-01-15T05:40:06;8.93;;;5.90;;
17993;SDS011;9122;48.406;9.984;2024-01-15T05:42:51;7.13;;;5.97;;
17993;SDS011;9122;48.406;9.984;2024-01-15T05:45:37;7.27;;;5.80;;
17993;SDS011;9122;48.406;9.984;2024-01-15T05:48:23;10.30;;;6.73;;
17993;SDS011;9122;48.406;9.984;2024-01-15T05:51:07;8.83;;;6.80;;
17993;SDS011;9122;48.406;9.984;2024-01-15T05:53:55;8.27;;;6.37;;
17993;SDS011;9122;48.406;9.984;2024-01-15T05:56:41;11.63;;;7.60;;
17993;SDS011;9122;48.406;9.984;2024-01-15T05:59:25;12.40;;;7.53;;
17993;SDS011;9122;48.406;9.984;2024-01-15T06:02:10;10.40;;;6.97;;
17993;SDS011;9122;48.406;9.984;2024-01-15T06:04:55;9.67;;;6.60;;
17993;SDS011;9122;48.406;9.984;2024-01-15T06:07:41;9.13;;;6.87;;
17993;SDS011;9122;48.406;9.984;2024-01-15T06:10:25;11.60;;;7.07;;
17993;SDS011;9122;48.406;9.984;2024-01-15T06:13:10;11.50;;;8.03;;
17993;SDS011;9122;48.406;9.984;2024-01-15T06:15:54;10.67;;;7.40;;
17993;SDS011;9122;48.406;9.984;2024-01-15T06:18:39;12.17;;;8.67;;
17993;SDS011;9122;48.406;9.984;2024-01-15T06:21:23;14.03;;;9.07;;
17993;SDS011;9122;48.406;9.984;2024-01-15T06:24:08;18.90;;;10.17;;
17993;SDS011;9122;48.406;9.984;2024-01-15T06:26:53;15.50;;;8.20;;
17993;SDS011;9122;48.406;9.984;2024-01-15T06:29:38;10.83;;;7.67;;
17993;SDS011;9122;48.406;9.984;2024-01-15T06:32:23;10.87;;;6.70;;
17993;SDS011;9122;48.406;9.984;2024-01-15T06:35:07;10.50;;;7.23;;
17993;SDS011;9122;48.406;9.984;2024-01-15T06:37:54;7.47;;;5.80;;
17993;SDS011;9122;48.406;9.984;2024-01-15T06:40:39;8.10;;;5.90;;
17993;SDS011;9122;48.406;9.984;2024-01-15T06:43:29;10.37;;;6.80;;
17993;SDS011;9122;48.406;9.984;2024-01-15T06:46:19;8.57;;;5.97;;
17993;SDS011;9122;48.406;9.984;2024-01-15T06:49:04;9.13;;;6.77;;
17993;SDS011;9122;48.406;9.984;2024-01-15T06:51:49;12.73;;;9.20;;
17993;SDS011;9122;48.406;9.984;2024-01-15T06:54:33;13.27;;;7.90;;
17993;SDS011;9122;48.406;9.984;2024-01-15T06:57:17;11.00;;;7.60;;
17993;SDS011;9122;48.406;9.984;2024-01-15T07:00:03;15.67;;;9.67;;
17993;SDS011;9122;48.406;9.984;2024-01-15T07:02:51;15.10;;;8.87;;
17993;SDS011;9122;48.406;9.984;2024-01-15T07:05:36;12.40;;;8.70;;
17993;SDS011;9122;48.406;9.984;2024-01-15T07:08:21;15.67;;;9.63;;
17993;SDS011;9122;48.406;9.984;2024-01-15T07:11:06;15.20;;;9.23;;
17993;SDS011;9122;48.406;9.984;2024-01-15T07:13:51;12.97;;;8.63;;
17993;SDS011;9122;48.406;9.984;2024-01-15T07:16:35;12.30;;;9.23;;
17993;SDS011;9122;48.406;9.984;2024-01-15T07:19:19;12.40;;;8.87;;
17993;SDS011;9122;48.406;9.984;2024-01-15T07:22:03;12.57;;;8.80;;
17993;SDS011;9122;48.406;9.984;2024-01-15T07:24:48;14.93;;;10.00;;
17993;SDS011;9122;48.406;9.984;2024-01-15T07:27:33;14.53;;;9.43;;
17993;SDS011;9122;48.406;9.984;2024-01-15T07:30:17;12.17;;;9.40;;
17993;SDS011;9122;48.406;9.984;2024-01-15T07:33:02;14.30;;;9.77;;
17993;SDS011;9122;48.406;9.984;2024-01-15T07:35:47;13.50;;;9.50;;
17993;SDS011;9122;48.406;9.984;2024-01-15T07:38:31;13.50;;;9.10;;
17993;SDS011;9122;48.406;9.984;2024-01-15T07:41:16;13.70;;;9.17;;
17993;SDS011;9122;48.406;9.984;2024-01-15T07:44:00;12.23;;;9.47;;
17993;SDS011;9122;48.406;9.984;2024-01-15T07:46:45;15.20;;;10.23;;
17993;SDS011;9122;48.406;9.984;2024-01-15T07:49:29;17.63;;;11.07;;
17993;SDS011;9122;48.406;9.984;2024-01-15T07:52:14;12.60;;;10.23;;
17993;SDS011;9122;48.406;9.984;2024-01-15T07:54:58;12.30;;;8.87;;
17993;SDS011;9122;48.406;9.984;2024-01-15T07:57:47;10.83;;;7.67;;
17993;SDS011;9122;48.406;9.984;2024-01-15T08:00:31;9.17;;;7.27;;
17993;SDS011;9122;48.406;9.984;2024-01-15T08:03:16;8.80;;;7.87;;
17993;SDS011;9122;48.406;9.984;2024-01-15T08:06:00;9.50;;;7.27;;
17993;SDS011;9122;48.406;9.984;2024-01-15T08:08:45;8.63;;;5.60;;
17993;SDS011;9122;48.406;9.984;2024-01-15T08:11:29;8.40;;;5.33;;
17993;SDS011;9122;48.406;9.984;2024-01-15T08:14:14;6.33;;;4.73;;
17993;SDS011;9122;48.406;9.984;2024-01-15T08:16:58;6.57;;;4.90;;
17993;SDS011;9122;48.406;9.984;2024-01-15T08:19:42;5.03;;;4.13;;
17993;SDS011;9122;48.406;9.984;2024-01-15T08:22:27;6.93;;;5.10;;
17993;SDS011;9122;48.406;9.984;2024-01-15T08:25:11;6.07;;;4.57;;
17993;SDS011;9122;48.406;9.984;2024-01-15T08:27:56;6.83;;;5.20;;
17993;SDS011;9122;48.406;9.984;2024-01-15T08:30:41;12.47;;;7.63;;
17993;SDS011;9122;48.406;9.984;2024-01-15T08:33:25;8.53;;;5.67;;
17993;SDS011;9122;48.406;9.984;2024-01-15T08:36:09;9.57;;;7.00;;
17993;SDS011;9122;48.406;9.984;2024-01-15T08:38:53;7.73;;;6.67;;
17993;SDS011;9122;48.406;9.984;2024-01-15T08:41:38;10.50;;;6.07;;
17993;SDS011;9122;48.406;9.984;2024-01-15T08:44:32;6.00;;;5.30;;
17993;SDS011;9122;48.406;9.984;2024-01-15T08:47:16;7.73;;;5.90;;
17993;SDS011;9122;48.406;9.984;2024-01-15T08:50:01;6.33;;;5.63;;
17993;SDS011;9122;48.406;9.984;2024-01-15T08:52:47;7.70;;;5.53;;
17993;SDS011;9122;48.406;9.984;2024-01-15T08:55:31;7.07;;;5.93;;
17993;SDS011;9122;48.406;9.984;2024-01-15T08:58:16;7.23;;;6.53;;
17993;SDS011;9122;48.406;9.984;2024-01-15T09:01:01;10.57;;;7.43;;
17993;SDS011;9122;48.406;9.984;2024-01-15T09:03:45;7.53;;;5.93;;
17993;SDS011;9122;48.406;9.984;2024-01-15T09:06:30;9.60;;;6.47;;
17993;SDS011;9122;48.406;9.984;2024-01-15T09:09:15;8.87;;;6.47;;
17993;SDS011;9122;48.406;9.984;2024-01-15T09:11:59;6.70;;;6.03;;
17993;SDS011;9122;48.406;9.984;2024-01-15T09:14:44;6.60;;;5.37;;
17993;SDS011;9122;48.406;9.984;2024-01-15T09:17:29;6.60;;;5.53;;
17993;SDS011;9122;48.406;9.984;2024-01-15T09:20:13;7.87;;;5.23;;
17993;SDS011;9122;48.406;9.984;2024-01-15T09:22:58;10.17;;;6.53;;
17993;SDS011;9122;48.406;9.984;2024-01-15T09:25:42;12.27;;;8.07;;
17993;SDS011;9122;48.406;9.984;2024-01-15T09:28:27;6.70;;;5.80;;
17993;SDS011;9122;48.406;9.984;2024-01-15T09:31:12;7.27;;;6.13;;
17993;SDS011;9122;48.406;9.984;2024-01-15T09:33:56;6.97;;;6.27;;
17993;SDS011;9122;48.406;9.984;2024-01-15T09:36:48;5.40;;;4.87;;
17993;SDS011;9122;48.406;9.984;2024-01-15T09:39:32;7.73;;;5.20;;
17993;SDS011;9122;48.406;9.984;2024-01-15T09:42:16;5.50;;;4.30;;
17993;SDS011;9122;48.406;9.984;2024-01-15T09:45:01;4.87;;;4.47;;
17993;SDS011;9122;48.406;9.984;2024-01-15T09:47:47;6.40;;;3.70;;
17993;SDS011;9122;48.406;9.984;2024-01-15T09:50:31;9.43;;;3.63;;
17993;SDS011;9122;48.406;9.984;2024-01-15T09:53:16;4.30;;;3.87;;
17993;SDS011;9122;48.406;9.984;2024-01-15T09:56:01;4.17;;;3.77;;
17993;SDS011;9122;48.406;9.984;2024-01-15T09:58:46;4.70;;;4.30;;
17993;SDS011;9122;48.406;9.984;2024-01-15T10:01:31;5.33;;;4.47;;
17993;SDS011;9122;48.406;9.984;2024-01-15T10:04:16;3.83;;;3.43;;
17993;SDS011;9122;48.406;9.984;2024-01-15T10:07:00;5.47;;;3.57;;
17993;SDS011;9122;48.406;9.984;2024-01-15T10:09:45;3.40;;;3.10;;
17993;SDS011;9122;48.406;9.984;2024-01-15T10:12:30;5.60;;;3.90;;
17993;SDS011;9122;48.406;9.984;2024-01-15T10:15:15;4.23;;;3.63;;
17993;SDS011;9122;48.406;9.984;2024-01-15T10:18:00;6.53;;;3.50;;
17993;SDS011;9122;48.406;9.984;2024-01-15T10:20:46;8.27;;;3.90;;
17993;SDS011;9122;48.406;9.984;2024-01-15T10:23:31;8.03;;;2.90;;
17993;SDS011;9122;48.406;9.984;2024-01-15T10:26:16;10.00;;;3.40;;
17993;SDS011;9122;48.406;9.984;2024-01-15T10:29:00;4.13;;;3.17;;
17993;SDS011;9122;48.406;9.984;2024-01-15T10:31:46;3.40;;;3.10;;
17993;SDS011;9122;48.406;9.984;2024-01-15T10:34:30;5.70;;;3.30;;
17993;SDS011;9122;48.406;9.984;2024-01-15T10:37:15;5.10;;;2.40;;
17993;SDS011;9122;48.406;9.984;2024-01-15T10:40:04;2.97;;;2.30;;
17993;SDS011;9122;48.406;9.984;2024-01-15T10:42:49;6.30;;;3.60;;
17993;SDS011;9122;48.406;9.984;2024-01-15T10:45:33;3.60;;;2.47;;
17993;SDS011;9122;48.406;9.984;2024-01-15T10:48:18;5.70;;;2.50;;
17993;SDS011;9122;48.406;9.984;2024-01-15T10:51:03;3.20;;;2.50;;
17993;SDS011;9122;48.406;9.984;2024-01-15T10:53:54;4.77;;;2.10;;
17993;SDS011;9122;48.406;9.984;2024-01-15T10:56:40;4.33;;;2.40;;
17993;SDS011;9122;48.406;9.984;2024-01-15T10:59:25;2.87;;;1.80;;
17993;SDS011;9122;48.406;9.984;2024-01-15T11:02:10;2.40;;;2.20;;
17993;SDS011;9122;48.406;9.984;2024-01-15T11:04:55;4.00;;;2.03;;
17993;SDS011;9122;48.406;9.984;2024-01-15T11:07:39;6.13;;;2.20;;
17993;SDS011;9122;48.406;9.984;2024-01-15T11:10:44;2.83;;;1.90;;
17993;SDS011;9122;48.406;9.984;2024-01-15T11:16:19;1.70;;;1.60;;
17993;SDS011;9122;48.406;9.984;2024-01-15T11:19:04;2.23;;;1.97;;
17993;SDS011;9122;48.406;9.984;2024-01-15T11:21:50;2.20;;;2.10;;
17993;SDS011;9122;48.406;9.984;2024-01-15T11:24:38;3.20;;;2.00;;
17993;SDS011;9122;48.406;9.984;2024-01-15T11:27:39;3.60;;;2.83;;
17993;SDS011;9122;48.406;9.984;2024-01-15T11:30:27;6.60;;;3.20;;
17993;SDS011;9122;48.406;9.984;2024-01-15T11:36:18;5.70;;;2.27;;
17993;SDS011;9122;48.406;9.984;2024-01-15T11:39:26;3.30;;;2.40;;
17993;SDS011;9122;48.406;9.984;2024-01-15T11:42:12;2.97;;;2.13;;
17993;SDS011;9122;48.406;9.984;2024-01-15T11:44:57;2.80;;;2.20;;
17993;SDS011;9122;48.406;9.984;2024-01-15T11:50:52;2.87;;;2.63;;
17993;SDS011;9122;48.406;9.984;2024-01-15T11:53:40;2.97;;;2.47;;
17993;SDS011;9122;48.406;9.984;2024-01-15T11:56:28;4.20;;;3.00;;
17993;SDS011;9122;48.406;9.984;2024-01-15T11:59:15;2.60;;;2.40;;
17993;SDS011;9122;48.406;9.984;2024-01-15T12:02:00;3.77;;;2.47;;
17993;SDS011;9122;48.406;9.984;2024-01-15T12:04:45;3.37;;;2.63;;
17993;SDS011;9122;48.406;9.984;2024-01-15T12:07:29;3.97;;;2.60;;
17993;SDS011;9122;48.406;9.984;2024-01-15T12:10:15;3.43;;;2.20;;
17993;SDS011;9122;48.406;9.984;2024-01-15T12:13:05;3.17;;;2.50;;
17993;SDS011;9122;48.406;9.984;2024-01-15T12:15:54;3.30;;;3.00;;
17993;SDS011;9122;48.406;9.984;2024-01-15T12:18:38;2.30;;;2.10;;
17993;SDS011;9122;48.406;9.984;2024-01-15T12:21:26;2.90;;;1.90;;
17993;SDS011;9122;48.406;9.984;2024-01-15T12:24:10;2.83;;;2.00;;
17993;SDS011;9122;48.406;9.984;2024-01-15T12:26:55;2.90;;;2.70;;
17993;SDS011;9122;48.406;9.984;2024-01-15T12:29:40;3.13;;;2.17;;
17993;SDS011;9122;48.406;9.984;2024-01-15T12:32:24;3.00;;;1.70;;
17993;SDS011;9122;48.406;9.984;2024-01-15T12:35:12;3.13;;;2.17;;
17993;SDS011;9122;48.406;9.984;2024-01-15T12:37:57;1.90;;;1.80;;
17993;SDS011;9122;48.406;9.984;2024-01-15T12:40:43;2.10;;;1.93;;
17993;SDS011;9122;48.406;9.984;2024-01-15T12:43:30;2.40;;;2.00;;
17993;SDS011;9122;48.406;9.984;2024-01-15T12:46:14;2.50;;;2.30;;
17993;SDS011;9122;48.406;9.984;2024-01-15T12:48:59;2.73;;;2.10;;
17993;SDS011;9122;48.406;9.984;2024-01-15T12:51:51;2.23;;;2.03;;
17993;SDS011;9122;48.406;9.984;2024-01-15T12:54:40;2.30;;;1.70;;
17993;SDS011;9122;48.406;9.984;2024-01-15T12:57:24;1.80;;;1.70;;
17993;SDS011;9122;48.406;9.984;2024-01-15T13:00:09;3.47;;;2.47;;
17993;SDS011;9122;48.406;9.984;2024-01-15T13:02:56;2.27;;;1.97;;
17993;SDS011;9122;48.406;9.984;2024-01-15T13:05:41;2.53;;;2.33;;
17993;SDS011;9122;48.406;9.984;2024-01-15T13:08:25;1.93;;;1.80;;
17993;SDS011;9122;48.406;9.984;2024-01-15T13:11:12;1.90;;;1.80;;
17993;SDS011;9122;48.406;9.984;2024-01-15T13:13:56;1.60;;;1.50;;
17993;SDS011;9122;48.406;9.984;2024-01-15T13:16:40;4.10;;;1.70;;
17993;SDS011;9122;48.406;9.984;2024-01-15T13:19:25;1.60;;;1.50;;
17993;SDS011;9122;48.406;9.984;2024-01-15T13:22:09;2.47;;;1.70;;
17993;SDS011;9122;48.406;9.984;2024-01-15T13:24:57;2.40;;;2.20;;
17993;SDS011;9122;48.406;9.984;2024-01-15T13:27:42;1.67;;;1.57;;
17993;SDS011;9122;48.406;9.984;2024-01-15T13:30:26;2.53;;;2.30;;
17993;SDS011;9122;48.406;9.984;2024-01-15T13:33:11;1.90;;;1.70;;
17993;SDS011;9122;48.406;9.984;2024-01-15T13:35:55;2.40;;;2.20;;
17993;SDS011;9122;48.406;9.984;2024-01-15T13:38:40;2.07;;;1.87;;
17993;SDS011;9122;48.406;9.984;2024-01-15T13:41:25;2.10;;;1.73;;
17993;SDS011;9122;48.406;9.984;2024-01-15T13:44:11;2.80;;;2.23;;
17993;SDS011;9122;48.406;9.984;2024-01-15T13:46:55;1.83;;;1.73;;
17993;SDS011;9122;48.406;9.984;2024-01-15T13:49:40;1.97;;;1.73;;
17993;SDS011;9122;48.406;9.984;2024-01-15T13:52:24;7.33;;;2.40;;
17993;SDS011;9122;48.406;9.984;2024-01-15T13:55:09;3.87;;;1.83;;
17993;SDS011;9122;48.406;9.984;2024-01-15T13:57:54;2.20;;;2.00;;
17993;SDS011;9122;48.406;9.984;2024-01-15T14:00:38;3.67;;;2.13;;
17993;SDS011;9122;48.406;9.984;2024-01-15T14:03:25;2.90;;;2.27;;
17993;SDS011;9122;48.406;9.984;2024-01-15T14:06:09;2.30;;;2.10;;
17993;SDS011;9122;48.406;9.984;2024-01-15T14:08:54;2.63;;;2.20;;
17993;SDS011;9122;48.406;9.984;2024-01-15T14:11:38;3.07;;;2.23;;
17993;SDS011;9122;48.406;9.984;2024-01-15T14:14:23;2.40;;;2.20;;
17993;SDS011;9122;48.406;9.984;2024-01-15T14:17:07;2.53;;;2.37;;
17993;SDS011;9122;48.406;9.984;2024-01-15T14:19:52;2.47;;;2.27;;
17993;SDS011;9122;48.406;9.984;2024-01-15T14:22:35;2.43;;;2.23;;
17993;SDS011;9122;48.406;9.984;2024-01-15T14:25:20;3.53;;;2.23;;
17993;SDS011;9122;48.406;9.984;2024-01-15T14:28:05;2.63;;;2.43;;
17993;SDS011;9122;48.406;9.984;2024-01-15T14:30:50;2.70;;;2.50;;
17993;SDS011;9122;48.406;9.984;2024-01-15T14:33:35;2.67;;;2.47;;
17993;SDS011;9122;48.406;9.984;2024-01-15T14:36:20;2.70;;;2.50;;
17993;SDS011;9122;48.406;9.984;2024-01-15T14:39:04;2.83;;;2.63;;
17993;SDS011;9122;48.406;9.984;2024-01-15T14:41:49;2.80;;;2.60;;
17993;SDS011;9122;48.406;9.984;2024-01-15T14:44:34;2.57;;;2.37;;
17993;SDS011;9122;48.406;9.984;2024-01-15T14:47:19;3.43;;;3.13;;
17993;SDS011;9122;48.406;9.984;2024-01-15T14:50:07;3.07;;;2.73;;
17993;SDS011;9122;48.406;9.984;2024-01-15T14:52:53;3.37;;;3.07;;
17993;SDS011;9122;48.406;9.984;2024-01-15T14:55:37;3.13;;;2.83;;
17993;SDS011;9122;48.406;9.984;2024-01-15T14:58:21;3.30;;;3.00;;
17993;SDS011;9122;48.406;9.984;2024-01-15T15:01:06;2.93;;;2.73;;
17993;SDS011;9122;48.406;9.984;2024-01-15T15:03:50;4.00;;;3.03;;
17993;SDS011;9122;48.406;9.984;2024-01-15T15:06:34;5.03;;;3.67;;
17993;SDS011;9122;48.406;9.984;2024-01-15T15:09:18;5.03;;;3.30;;
17993;SDS011;9122;48.406;9.984;2024-01-15T15:12:03;3.33;;;3.03;;
17993;SDS011;9122;48.406;9.984;2024-01-15T15:14:48;3.63;;;3.20;;
17993;SDS011;9122;48.406;9.984;2024-01-15T15:17:33;2.90;;;2.70;;
17993;SDS011;9122;48.406;9.984;2024-01-15T15:20:18;3.37;;;3.07;;
17993;SDS011;9122;48.406;9.984;2024-01-15T15:23:03;3.40;;;3.10;;
17993;SDS011;9122;48.406;9.984;2024-01-15T15:25:51;4.33;;;3.93;;
17993;SDS011;9122;48.406;9.984;2024-01-15T15:28:36;3.80;;;3.43;;
17993;SDS011;9122;48.406;9.984;2024-01-15T15:31:20;4.27;;;3.87;;
17993;SDS011;9122;48.406;9.984;2024-01-15T15:34:05;4.27;;;3.97;;
17993;SDS011;9122;48.406;9.984;2024-01-15T15:36:49;3.73;;;3.43;;
17993;SDS011;9122;48.406;9.984;2024-01-15T15:39:34;3.73;;;3.40;;
17993;SDS011;9122;48.406;9.984;2024-01-15T15:42:18;4.13;;;3.77;;
17993;SDS011;9122;48.406;9.984;2024-01-15T15:45:03;3.37;;;3.07;;
17993;SDS011;9122;48.406;9.984;2024-01-15T15:47:47;3.57;;;3.27;;
17993;SDS011;9122;48.406;9.984;2024-01-15T15:50:32;4.30;;;3.80;;
17993;SDS011;9122;48.406;9.984;2024-01-15T15:53:18;3.87;;;3.57;;
17993;SDS011;9122;48.406;9.984;2024-01-15T15:56:04;4.53;;;3.63;;
17993;SDS011;9122;48.406;9.984;2024-01-15T15:58:48;4.17;;;3.73;;
17993;SDS011;9122;48.406;9.984;2024-01-15T16:01:33;4.20;;;3.80;;
17993;SDS011;9122;48.406;9.984;2024-01-15T16:04:18;4.23;;;3.83;;
17993;SDS011;9122;48.406;9.984;2024-01-15T16:07:03;4.80;;;3.00;;
17993;SDS011;9122;48.406;9.984;2024-01-15T16:09:51;4.30;;;2.90;;
17993;SDS011;9122;48.406;9.984;2024-01-15T16:12:36;2.90;;;2.60;;
17993;SDS011;9122;48.406;9.984;2024-01-15T16:15:21;3.43;;;3.17;;
17993;SDS011;9122;48.406;9.984;2024-01-15T16:18:07;3.40;;;3.07;;
17993;SDS011;9122;48.406;9.984;2024-01-15T16:20:51;3.07;;;2.77;;
17993;SDS011;9122;48.406;9.984;2024-01-15T16:23:36;3.20;;;2.63;;
17993;SDS011;9122;48.406;9.984;2024-01-15T16:26:20;3.50;;;2.30;;
17993;SDS011;9122;48.406;9.984;2024-01-15T16:29:05;2.93;;;2.73;;
17993;SDS011;9122;48.406;9.984;2024-01-15T16:31:49;3.43;;;2.53;;
17993;SDS011;9122;48.406;9.984;2024-01-15T16:34:33;2.63;;;2.40;;
17993;SDS011;9122;48.406;9.984;2024-01-15T16:37:18;3.10;;;2.83;;
17993;SDS011;9122;48.406;9.984;2024-01-15T16:40:03;3.37;;;3.07;;
17993;SDS011;9122;48.406;9.984;2024-01-15T16:42:48;3.27;;;3.00;;
17993;SDS011;9122;48.406;9.984;2024-01-15T16:45:32;3.67;;;3.37;;
17993;SDS011;9122;48.406;9.984;2024-01-15T16:48:17;2.97;;;2.77;;
17993;SDS011;9122;48.406;9.984;2024-01-15T16:51:01;3.03;;;2.70;;
17993;SDS011;9122;48.406;9.984;2024-01-15T16:53:45;2.87;;;2.67;;